sensor_id;sensor_type;location;lat;lon;timestamp;P1;durP1;ratioP1;P2;durP2;ratioP2
29934;SDS011;19905;53.370;-6.314;2022-08-18T00:00:04;12.43;;;3.92;;
29934;SDS011;19905;53.370;-6.314;2022-08-18T00:02:45;8.18;;;3.70;;
29934;SDS011;19905;53.370;-6.314;2022-08-18T00:05:26;7.18;;;3.58;;
29934;SDS011;19905;53.370;-6.314;2022-08-18T00:07:56;10.48;;;3.60;;
29934;SDS011;19905;53.370;-6.314;2022-08-18T00:10:28;8.55;;;3.40;;
29934;SDS011;19905;53.370;-6.314;2022-08-18T00:12:58;8.50;;;3.20;;
29934;SDS011;19905;53.370;-6.314;2022-08-18T00:15:27;8.48;;;3.65;;
29934;SDS011;19905;53.370;-6.314;2022-08-18T00:17:56;6.53;;;3.05;;
29934;SDS011;19905;53.370;-6.314;2022-08-18T00:20:25;7.35;;;3.30;;
29934;SDS011;19905;53.370;-6.314;2022-08-18T00:22:58;11.57;;;3.40;;
29934;SDS011;19905;53.370;-6.314;2022-08-18T00:25:37;8.52;;;3.20;;
29934;SDS011;19905;53.370;-6.314;2022-08-18T00:28:06;7.38;;;3.28;;
29934;SDS011;19905;53.370;-6.314;2022-08-18T00:30:36;8.00;;;3.25;;
29934;SDS011;19905;53.370;-6.314;2022-08-18T00:33:04;9.98;;;3.05;;
29934;SDS011;19905;53.370;-6.314;2022-08-18T00:35:34;6.32;;;3.22;;
29934;SDS011;19905;53.370;-6.314;2022-08-18T00:38:05;11.10;;;3.50;;
29934;SDS011;19905;53.370;-6.314;2022-08-18T00:40:52;9.32;;;3.60;;
29934;SDS011;19905;53.370;-6.314;2022-08-18T00:43:24;9.68;;;3.50;;
29934;SDS011;19905;53.370;-6.314;2022-08-18T00:45:59;8.23;;;3.15;;
29934;SDS011;19905;53.370;-6.314;2022-08-18T00:48:28;8.27;;;3.35;;
29934;SDS011;19905;53.370;-6.314;2022-08-18T00:50:57;7.82;;;3.30;;
29934;SDS011;19905;53.370;-6.314;2022-08-18T00:53:28;8.85;;;3.58;;
29934;SDS011;19905;53.370;-6.314;2022-08-18T00:56:04;8.15;;;3.45;;
29934;SDS011;19905;53.370;-6.314;2022-08-18T00:58:41;10.77;;;3.40;;
29934;SDS011;19905;53.370;-6.314;2022-08-18T01:01:16;10.55;;;3.45;;
29934;SDS011;19905;53.370;-6.314;2022-08-18T01:03:49;7.05;;;3.35;;
29934;SDS011;19905;53.370;-6.314;2022-08-18T01:06:25;7.38;;;3.42;;
29934;SDS011;19905;53.370;-6.314;2022-08-18T01:08:58;8.05;;;3.50;;
29934;SDS011;19905;53.370;-6.314;2022-08-18T01:11:33;7.47;;;3.33;;
29934;SDS011;19905;53.370;-6.314;2022-08-18T01:14:03;7.32;;;3.28;;
29934;SDS011;19905;53.370;-6.314;2022-08-18T01:16:33;10.48;;;3.53;;
29934;SDS011;19905;53.370;-6.314;2022-08-18T01:19:23;10.15;;;3.95;;
29934;SDS011;19905;53.370;-6.314;2022-08-18T01:22:13;8.63;;;3.55;;
29934;SDS011;19905;53.370;-6.314;2022-08-18T01:24:47;8.20;;;3.67;;
29934;SDS011;19905;53.370;-6.314;2022-08-18T01:27:35;9.02;;;3.47;;
29934;SDS011;19905;53.370;-6.314;2022-08-18T01:30:08;6.55;;;3.58;;
29934;SDS011;19905;53.370;-6.314;2022-08-18T01:32:41;6.05;;;3.33;;
29934;SDS011;19905;53.370;-6.314;2022-08-18T01:35:12;9.38;;;3.53;;
29934;SDS011;19905;53.370;-6.314;2022-08-18T01:37:45;7.38;;;3.63;;
29934;SDS011;19905;53.370;-6.314;2022-08-18T01:40:21;8.63;;;3.47;;
29934;SDS011;19905;53.370;-6.314;2022-08-18T01:43:12;8.40;;;3.45;;
29934;SDS011;19905;53.370;-6.314;2022-08-18T01:45:43;9.55;;;3.40;;
29934;SDS011;19905;53.370;-6.314;2022-08-18T01:48:11;8.30;;;3.17;;
29934;SDS011;19905;53.370;-6.314;2022-08-18T01:50:40;6.88;;;3.13;;
29934;SDS011;19905;53.370;-6.314;2022-08-18T01:53:10;7.97;;;3.05;;
29934;SDS011;19905;53.370;-6.314;2022-08-18T01:55:40;7.50;;;3.35;;
29934;SDS011;19905;53.370;-6.314;2022-08-18T01:58:11;9.18;;;3.20;;
29934;SDS011;19905;53.370;-6.314;2022-08-18T02:00:40;6.68;;;3.08;;
29934;SDS011;19905;53.370;-6.314;2022-08-18T02:03:10;8.98;;;3.28;;
29934;SDS011;19905;53.370;-6.314;2022-08-18T02:05:42;7.50;;;3.10;;
29934;SDS011;19905;53.370;-6.314;2022-08-18T02:08:16;8.40;;;3.25;;
29934;SDS011;19905;53.370;-6.314;2022-08-18T02:10:54;8.43;;;3.40;;
29934;SDS011;19905;53.370;-6.314;2022-08-18T02:13:25;7.65;;;3.22;;
29934;SDS011;19905;53.370;-6.314;2022-08-18T02:15:56;9.25;;;3.10;;
29934;SDS011;19905;53.370;-6.314;2022-08-18T02:18:26;9.02;;;3.50;;
29934;SDS011;19905;53.370;-6.314;2022-08-18T02:21:16;7.85;;;3.17;;
29934;SDS011;19905;53.370;-6.314;2022-08-18T02:23:48;5.97;;;3.35;;
29934;SDS011;19905;53.370;-6.314;2022-08-18T02:26:21;8.82;;;3.45;;
29934;SDS011;19905;53.370;-6.314;2022-08-18T02:28:50;6.53;;;3.33;;
29934;SDS011;19905;53.370;-6.314;2022-08-18T02:34:13;7.75;;;3.40;;
29934;SDS011;19905;53.370;-6.314;2022-08-18T02:36:42;8.35;;;3.70;;
29934;SDS011;19905;53.370;-6.314;2022-08-18T02:39:12;9.10;;;4.03;;
29934;SDS011;19905;53.370;-6.314;2022-08-18T02:41:42;9.73;;;3.90;;
29934;SDS011;19905;53.370;-6.314;2022-08-18T02:44:17;8.68;;;4.13;;
29934;SDS011;19905;53.370;-6.314;2022-08-18T02:49:19;9.27;;;3.60;;
29934;SDS011;19905;53.370;-6.314;2022-08-18T02:51:48;10.52;;;3.90;;
29934;SDS011;19905;53.370;-6.314;2022-08-18T02:54:24;9.60;;;3.75;;
29934;SDS011;19905;53.370;-6.314;2022-08-18T02:59:37;9.15;;;3.90;;
29934;SDS011;19905;53.370;-6.314;2022-08-18T03:02:07;7.35;;;3.97;;
29934;SDS011;19905;53.370;-6.314;2022-08-18T03:04:36;9.18;;;3.95;;
29934;SDS011;19905;53.370;-6.314;2022-08-18T03:07:06;8.55;;;3.78;;
29934;SDS011;19905;53.370;-6.314;2022-08-18T03:09:36;8.63;;;4.10;;
29934;SDS011;19905;53.370;-6.314;2022-08-18T03:12:07;10.02;;;4.10;;
29934;SDS011;19905;53.370;-6.314;2022-08-18T03:14:37;9.60;;;4.10;;
29934;SDS011;19905;53.370;-6.314;2022-08-18T03:17:07;7.30;;;3.80;;
29934;SDS011;19905;53.370;-6.314;2022-08-18T03:19:36;11.35;;;4.13;;
29934;SDS011;19905;53.370;-6.314;2022-08-18T03:22:07;9.75;;;4.18;;
29934;SDS011;19905;53.370;-6.314;2022-08-18T03:24:54;10.88;;;4.10;;
29934;SDS011;19905;53.370;-6.314;2022-08-18T03:27:24;8.07;;;4.03;;
29934;SDS011;19905;53.370;-6.314;2022-08-18T03:29:53;8.75;;;3.80;;
29934;SDS011;19905;53.370;-6.314;2022-08-18T03:32:24;6.07;;;3.83;;
29934;SDS011;19905;53.370;-6.314;2022-08-18T03:34:54;8.60;;;3.92;;
29934;SDS011;19905;53.370;-6.314;2022-08-18T03:37:23;7.85;;;4.13;;
29934;SDS011;19905;53.370;-6.314;2022-08-18T03:39:51;6.88;;;3.70;;
29934;SDS011;19905;53.370;-6.314;2022-08-18T03:42:20;8.60;;;3.97;;
29934;SDS011;19905;53.370;-6.314;2022-08-18T03:44:52;7.50;;;4.22;;
29934;SDS011;19905;53.370;-6.314;2022-08-18T03:47:20;7.40;;;4.07;;
29934;SDS011;19905;53.370;-6.314;2022-08-18T03:49:49;5.80;;;3.78;;
29934;SDS011;19905;53.370;-6.314;2022-08-18T03:54:50;6.22;;;3.47;;
29934;SDS011;19905;53.370;-6.314;2022-08-18T03:57:20;8.32;;;4.00;;
29934;SDS011;19905;53.370;-6.314;2022-08-18T03:59:53;7.22;;;3.60;;
29934;SDS011;19905;53.370;-6.314;2022-08-18T04:02:21;5.82;;;3.75;;
29934;SDS011;19905;53.370;-6.314;2022-08-18T04:04:50;8.07;;;4.05;;
29934;SDS011;19905;53.370;-6.314;2022-08-18T04:07:19;7.75;;;4.10;;
29934;SDS011;19905;53.370;-6.314;2022-08-18T04:09:48;7.18;;;3.85;;
29934;SDS011;19905;53.370;-6.314;2022-08-18T04:12:20;8.60;;;4.32;;
29934;SDS011;19905;53.370;-6.314;2022-08-18T04:14:49;9.18;;;4.20;;
29934;SDS011;19905;53.370;-6.314;2022-08-18T04:17:19;8.85;;;4.38;;
29934;SDS011;19905;53.370;-6.314;2022-08-18T04:19:51;7.47;;;4.22;;
29934;SDS011;19905;53.370;-6.314;2022-08-18T04:22:21;8.55;;;4.68;;
29934;SDS011;19905;53.370;-6.314;2022-08-18T04:24:52;8.13;;;4.20;;
29934;SDS011;19905;53.370;-6.314;2022-08-18T04:27:24;9.07;;;4.32;;
29934;SDS011;19905;53.370;-6.314;2022-08-18T04:29:54;9.27;;;4.45;;
29934;SDS011;19905;53.370;-6.314;2022-08-18T04:32:26;8.88;;;4.28;;
29934;SDS011;19905;53.370;-6.314;2022-08-18T04:34:57;8.70;;;4.25;;
29934;SDS011;19905;53.370;-6.314;2022-08-18T04:37:29;10.10;;;4.30;;
29934;SDS011;19905;53.370;-6.314;2022-08-18T04:40:07;9.05;;;4.40;;
29934;SDS011;19905;53.370;-6.314;2022-08-18T04:42:39;8.25;;;4.63;;
29934;SDS011;19905;53.370;-6.314;2022-08-18T04:45:09;8.27;;;4.05;;
29934;SDS011;19905;53.370;-6.314;2022-08-18T04:47:39;8.07;;;4.57;;
29934;SDS011;19905;53.370;-6.314;2022-08-18T04:50:10;10.57;;;4.50;;
29934;SDS011;19905;53.370;-6.314;2022-08-18T04:52:41;9.40;;;4.53;;
29934;SDS011;19905;53.370;-6.314;2022-08-18T04:55:24;6.28;;;4.00;;
29934;SDS011;19905;53.370;-6.314;2022-08-18T04:57:55;6.93;;;4.00;;
29934;SDS011;19905;53.370;-6.314;2022-08-18T05:00:25;7.95;;;4.47;;
29934;SDS011;19905;53.370;-6.314;2022-08-18T05:02:56;7.57;;;4.45;;
29934;SDS011;19905;53.370;-6.314;2022-08-18T05:05:26;8.15;;;4.10;;
29934;SDS011;19905;53.370;-6.314;2022-08-18T05:07:54;6.38;;;3.83;;
29934;SDS011;19905;53.370;-6.314;2022-08-18T05:10:23;5.88;;;3.85;;
29934;SDS011;19905;53.370;-6.314;2022-08-18T05:12:52;9.27;;;3.65;;
29934;SDS011;19905;53.370;-6.314;2022-08-18T05:15:21;7.03;;;3.83;;
29934;SDS011;19905;53.370;-6.314;2022-08-18T05:17:50;4.97;;;3.85;;
29934;SDS011;19905;53.370;-6.314;2022-08-18T05:20:22;6.70;;;3.72;;
29934;SDS011;19905;53.370;-6.314;2022-08-18T05:22:51;5.88;;;3.72;;
29934;SDS011;19905;53.370;-6.314;2022-08-18T05:25:21;7.90;;;4.30;;
29934;SDS011;19905;53.370;-6.314;2022-08-18T05:27:49;6.82;;;4.07;;
29934;SDS011;19905;53.370;-6.314;2022-08-18T05:30:18;9.13;;;4.38;;
29934;SDS011;19905;53.370;-6.314;2022-08-18T05:32:47;7.82;;;4.35;;
29934;SDS011;19905;53.370;-6.314;2022-08-18T05:35:21;9.18;;;4.00;;
29934;SDS011;19905;53.370;-6.314;2022-08-18T05:41:03;7.25;;;3.90;;
29934;SDS011;19905;53.370;-6.314;2022-08-18T05:43:41;8.77;;;4.45;;
29934;SDS011;19905;53.370;-6.314;2022-08-18T05:46:17;8.60;;;4.15;;
29934;SDS011;19905;53.370;-6.314;2022-08-18T05:48:50;8.55;;;4.10;;
29934;SDS011;19905;53.370;-6.314;2022-08-18T05:51:30;7.15;;;3.75;;
29934;SDS011;19905;53.370;-6.314;2022-08-18T05:54:06;5.43;;;3.45;;
29934;SDS011;19905;53.370;-6.314;2022-08-18T05:57:09;5.65;;;3.30;;
29934;SDS011;19905;53.370;-6.314;2022-08-18T05:59:44;5.60;;;3.67;;
29934;SDS011;19905;53.370;-6.314;2022-08-18T06:02:16;6.85;;;3.38;;
29934;SDS011;19905;53.370;-6.314;2022-08-18T06:04:52;7.07;;;3.50;;
29934;SDS011;19905;53.370;-6.314;2022-08-18T06:07:25;5.40;;;3.33;;
29934;SDS011;19905;53.370;-6.314;2022-08-18T06:09:59;4.60;;;2.83;;
29934;SDS011;19905;53.370;-6.314;2022-08-18T06:12:29;6.47;;;3.13;;
29934;SDS011;19905;53.370;-6.314;2022-08-18T06:15:07;4.75;;;3.03;;
29934;SDS011;19905;53.370;-6.314;2022-08-18T06:17:49;6.15;;;3.00;;
29934;SDS011;19905;53.370;-6.314;2022-08-18T06:20:53;7.20;;;3.00;;
29934;SDS011;19905;53.370;-6.314;2022-08-18T06:23:41;6.07;;;2.90;;
29934;SDS011;19905;53.370;-6.314;2022-08-18T06:26:19;3.78;;;2.50;;
29934;SDS011;19905;53.370;-6.314;2022-08-18T06:28:58;4.45;;;2.53;;
29934;SDS011;19905;53.370;-6.314;2022-08-18T06:31:38;5.30;;;2.42;;
29934;SDS011;19905;53.370;-6.314;2022-08-18T06:34:17;4.88;;;2.40;;
29934;SDS011;19905;53.370;-6.314;2022-08-18T06:36:57;3.83;;;2.38;;
29934;SDS011;19905;53.370;-6.314;2022-08-18T06:39:41;2.65;;;1.80;;
29934;SDS011;19905;53.370;-6.314;2022-08-18T06:42:23;4.72;;;1.80;;
29934;SDS011;19905;53.370;-6.314;2022-08-18T06:44:57;2.58;;;1.67;;
29934;SDS011;19905;53.370;-6.314;2022-08-18T06:47:33;3.83;;;1.60;;
29934;SDS011;19905;53.370;-6.314;2022-08-18T06:50:07;3.03;;;1.45;;
29934;SDS011;19905;53.370;-6.314;2022-08-18T06:52:51;3.35;;;1.40;;
29934;SDS011;19905;53.370;-6.314;2022-08-18T06:55:31;5.05;;;1.40;;
29934;SDS011;19905;53.370;-6.314;2022-08-18T07:01:05;2.53;;;1.20;;
29934;SDS011;19905;53.370;-6.314;2022-08-18T07:03:42;2.42;;;1.10;;
29934;SDS011;19905;53.370;-6.314;2022-08-18T07:06:26;2.28;;;1.27;;
29934;SDS011;19905;53.370;-6.314;2022-08-18T07:12:05;2.55;;;0.95;;
29934;SDS011;19905;53.370;-6.314;2022-08-18T07:14:44;1.05;;;0.90;;
29934;SDS011;19905;53.370;-6.314;2022-08-18T07:17:24;1.63;;;0.90;;
29934;SDS011;19905;53.370;-6.314;2022-08-18T07:20:17;1.48;;;1.00;;
29934;SDS011;19905;53.370;-6.314;2022-08-18T07:25:26;3.13;;;1.02;;
29934;SDS011;19905;53.370;-6.314;2022-08-18T07:30:35;1.30;;;0.65;;
29934;SDS011;19905;53.370;-6.314;2022-08-18T07:33:29;2.70;;;0.63;;
29934;SDS011;19905;53.370;-6.314;2022-08-18T07:36:02;2.80;;;1.02;;
29934;SDS011;19905;53.370;-6.314;2022-08-18T07:38:34;2.20;;;0.60;;
29934;SDS011;19905;53.370;-6.314;2022-08-18T07:41:10;0.90;;;0.52;;
29934;SDS011;19905;53.370;-6.314;2022-08-18T07:43:52;1.52;;;0.60;;
29934;SDS011;19905;53.370;-6.314;2022-08-18T07:46:30;2.53;;;0.70;;
29934;SDS011;19905;53.370;-6.314;2022-08-18T07:49:03;1.90;;;0.65;;
29934;SDS011;19905;53.370;-6.314;2022-08-18T07:51:39;4.63;;;0.65;;
29934;SDS011;19905;53.370;-6.314;2022-08-18T07:54:21;5.57;;;0.70;;
29934;SDS011;19905;53.370;-6.314;2022-08-18T07:57:17;4.80;;;0.70;;
29934;SDS011;19905;53.370;-6.314;2022-08-18T07:59:55;4.40;;;0.65;;
29934;SDS011;19905;53.370;-6.314;2022-08-18T08:02:38;1.38;;;0.50;;
29934;SDS011;19905;53.370;-6.314;2022-08-18T08:05:27;1.75;;;0.43;;
29934;SDS011;19905;53.370;-6.314;2022-08-18T08:08:13;2.42;;;0.60;;
29934;SDS011;19905;53.370;-6.314;2022-08-18T08:10:54;4.32;;;0.50;;
29934;SDS011;19905;53.370;-6.314;2022-08-18T08:13:37;1.55;;;0.50;;
29934;SDS011;19905;53.370;-6.314;2022-08-18T08:16:25;2.67;;;0.68;;
29934;SDS011;19905;53.370;-6.314;2022-08-18T08:19:06;6.05;;;0.70;;
29934;SDS011;19905;53.370;-6.314;2022-08-18T08:22:11;2.78;;;0.63;;
29934;SDS011;19905;53.370;-6.314;2022-08-18T08:24:48;3.03;;;0.50;;
29934;SDS011;19905;53.370;-6.314;2022-08-18T08:27:28;2.22;;;0.50;;
29934;SDS011;19905;53.370;-6.314;2022-08-18T08:30:09;5.22;;;0.60;;
29934;SDS011;19905;53.370;-6.314;2022-08-18T08:32:44;2.78;;;0.55;;
29934;SDS011;19905;53.370;-6.314;2022-08-18T08:35:25;2.58;;;0.45;;
29934;SDS011;19905;53.370;-6.314;2022-08-18T08:38:17;3.13;;;0.60;;
29934;SDS011;19905;53.370;-6.314;2022-08-18T08:41:10;3.88;;;0.68;;
29934;SDS011;19905;53.370;-6.314;2022-08-18T08:43:48;3.33;;;0.50;;
29934;SDS011;19905;53.370;-6.314;2022-08-18T08:46:21;1.40;;;0.70;;
29934;SDS011;19905;53.370;-6.314;2022-08-18T08:48:58;3.05;;;0.40;;
29934;SDS011;19905;53.370;-6.314;2022-08-18T08:51:33;0.85;;;0.50;;
29934;SDS011;19905;53.370;-6.314;2022-08-18T08:54:09;2.78;;;0.60;;
29934;SDS011;19905;53.370;-6.314;2022-08-18T08:56:44;3.42;;;0.50;;
29934;SDS011;19905;53.370;-6.314;2022-08-18T08:59:16;5.07;;;0.45;;
29934;SDS011;19905;53.370;-6.314;2022-08-18T09:01:55;1.77;;;0.65;;
29934;SDS011;19905;53.370;-6.314;2022-08-18T09:05:10;0.88;;;0.60;;
29934;SDS011;19905;53.370;-6.314;2022-08-18T09:07:45;1.15;;;0.60;;
29934;SDS011;19905;53.370;-6.314;2022-08-18T09:16:54;2.47;;;0.60;;
29934;SDS011;19905;53.370;-6.314;2022-08-18T09:19:43;2.05;;;0.55;;
29934;SDS011;19905;53.370;-6.314;2022-08-18T09:22:28;2.80;;;0.63;;
29934;SDS011;19905;53.370;-6.314;2022-08-18T09:25:08;2.45;;;0.60;;
29934;SDS011;19905;53.370;-6.314;2022-08-18T09:27:40;0.70;;;0.40;;
29934;SDS011;19905;53.370;-6.314;2022-08-18T09:30:39;1.23;;;0.50;;
29934;SDS011;19905;53.370;-6.314;2022-08-18T09:33:20;0.70;;;0.50;;
29934;SDS011;19905;53.370;-6.314;2022-08-18T09:36:00;1.38;;;0.70;;
29934;SDS011;19905;53.370;-6.314;2022-08-18T09:38:48;1.60;;;0.47;;
29934;SDS011;19905;53.370;-6.314;2022-08-18T09:41:43;0.90;;;0.60;;
29934;SDS011;19905;53.370;-6.314;2022-08-18T09:47:55;2.03;;;0.60;;
29934;SDS011;19905;53.370;-6.314;2022-08-18T10:12:30;1.92;;;0.60;;
29934;SDS011;19905;53.370;-6.314;2022-08-18T10:15:20;2.35;;;0.65;;
29934;SDS011;19905;53.370;-6.314;2022-08-18T10:18:07;1.00;;;0.60;;
29934;SDS011;19905;53.370;-6.314;2022-08-18T10:20:54;1.48;;;0.57;;
29934;SDS011;19905;53.370;-6.314;2022-08-18T10:30:00;0.70;;;0.45;;
29934;SDS011;19905;53.370;-6.314;2022-08-18T10:38:34;1.45;;;0.40;;
29934;SDS011;19905;53.370;-6.314;2022-08-18T10:41:26;3.08;;;0.47;;
29934;SDS011;19905;53.370;-6.314;2022-08-18T10:43:59;0.30;;;0.20;;
29934;SDS011;19905;53.370;-6.314;2022-08-18T10:46:48;2.17;;;0.35;;
29934;SDS011;19905;53.370;-6.314;2022-08-18T10:49:22;0.50;;;0.35;;
29934;SDS011;19905;53.370;-6.314;2022-08-18T10:51:58;0.20;;;0.20;;
29934;SDS011;19905;53.370;-6.314;2022-08-18T10:54:56;2.17;;;0.55;;
29934;SDS011;19905;53.370;-6.314;2022-08-18T11:01:16;0.98;;;0.40;;
29934;SDS011;19905;53.370;-6.314;2022-08-18T11:04:04;0.40;;;0.40;;
29934;SDS011;19905;53.370;-6.314;2022-08-18T11:06:58;0.68;;;0.30;;
29934;SDS011;19905;53.370;-6.314;2022-08-18T11:09:53;1.40;;;0.40;;
29934;SDS011;19905;53.370;-6.314;2022-08-18T11:12:48;3.97;;;0.43;;
29934;SDS011;19905;53.370;-6.314;2022-08-18T11:15:34;1.98;;;0.50;;
29934;SDS011;19905;53.370;-6.314;2022-08-18T11:18:20;0.40;;;0.40;;
29934;SDS011;19905;53.370;-6.314;2022-08-18T11:24:02;2.63;;;0.45;;
29934;SDS011;19905;53.370;-6.314;2022-08-18T11:26:36;1.85;;;0.30;;
29934;SDS011;19905;53.370;-6.314;2022-08-18T11:29:16;1.45;;;0.30;;
29934;SDS011;19905;53.370;-6.314;2022-08-18T11:31:59;1.40;;;0.22;;
29934;SDS011;19905;53.370;-6.314;2022-08-18T11:34:38;1.70;;;0.30;;
29934;SDS011;19905;53.370;-6.314;2022-08-18T11:37:24;1.80;;;0.30;;
29934;SDS011;19905;53.370;-6.314;2022-08-18T11:40:21;3.65;;;0.30;;
29934;SDS011;19905;53.370;-6.314;2022-08-18T11:43:18;2.22;;;0.57;;
29934;SDS011;19905;53.370;-6.314;2022-08-18T11:45:59;1.85;;;0.30;;
29934;SDS011;19905;53.370;-6.314;2022-08-18T11:48:42;1.38;;;0.30;;
29934;SDS011;19905;53.370;-6.314;2022-08-18T11:51:21;3.80;;;0.57;;
29934;SDS011;19905;53.370;-6.314;2022-08-18T11:53:55;2.08;;;0.22;;
29934;SDS011;19905;53.370;-6.314;2022-08-18T11:56:26;1.75;;;0.50;;
29934;SDS011;19905;53.370;-6.314;2022-08-18T11:59:31;0.90;;;0.30;;
29934;SDS011;19905;53.370;-6.314;2022-08-18T12:02:21;0.98;;;0.40;;
29934;SDS011;19905;53.370;-6.314;2022-08-18T12:04:52;0.60;;;0.35;;
29934;SDS011;19905;53.370;-6.314;2022-08-18T12:07:32;1.17;;;0.40;;
29934;SDS011;19905;53.370;-6.314;2022-08-18T12:10:13;1.98;;;0.40;;
29934;SDS011;19905;53.370;-6.314;2022-08-18T12:12:55;1.02;;;0.50;;
29934;SDS011;19905;53.370;-6.314;2022-08-18T12:15:30;1.77;;;0.50;;
29934;SDS011;19905;53.370;-6.314;2022-08-18T12:18:12;0.77;;;0.30;;
29934;SDS011;19905;53.370;-6.314;2022-08-18T12:20:55;2.28;;;0.40;;
29934;SDS011;19905;53.370;-6.314;2022-08-18T12:23:29;0.65;;;0.40;;
29934;SDS011;19905;53.370;-6.314;2022-08-18T12:26:16;1.63;;;0.38;;
29934;SDS011;19905;53.370;-6.314;2022-08-18T12:29:06;1.13;;;0.40;;
29934;SDS011;19905;53.370;-6.314;2022-08-18T12:31:36;0.68;;;0.50;;
29934;SDS011;19905;53.370;-6.314;2022-08-18T12:34:13;0.70;;;0.43;;
29934;SDS011;19905;53.370;-6.314;2022-08-18T12:37:07;1.90;;;0.40;;
29934;SDS011;19905;53.370;-6.314;2022-08-18T12:39:57;1.40;;;0.40;;
29934;SDS011;19905;53.370;-6.314;2022-08-18T12:42:28;0.30;;;0.30;;
29934;SDS011;19905;53.370;-6.314;2022-08-18T12:44:59;0.40;;;0.40;;
29934;SDS011;19905;53.370;-6.314;2022-08-18T12:47:28;0.90;;;0.40;;
29934;SDS011;19905;53.370;-6.314;2022-08-18T12:49:58;1.58;;;0.40;;
29934;SDS011;19905;53.370;-6.314;2022-08-18T12:52:29;0.93;;;0.40;;
29934;SDS011;19905;53.370;-6.314;2022-08-18T12:54:59;0.85;;;0.50;;
29934;SDS011;19905;53.370;-6.314;2022-08-18T12:57:31;0.50;;;0.40;;
29934;SDS011;19905;53.370;-6.314;2022-08-18T13:00:19;2.15;;;0.55;;
29934;SDS011;19905;53.370;-6.314;2022-08-18T13:02:54;0.47;;;0.40;;
29934;SDS011;19905;53.370;-6.314;2022-08-18T13:05:23;1.92;;;0.40;;
29934;SDS011;19905;53.370;-6.314;2022-08-18T13:07:55;0.98;;;0.47;;
29934;SDS011;19905;53.370;-6.314;2022-08-18T13:10:30;1.15;;;0.40;;
29934;SDS011;19905;53.370;-6.314;2022-08-18T13:13:13;0.70;;;0.40;;
29934;SDS011;19905;53.370;-6.314;2022-08-18T13:15:42;1.60;;;0.52;;
29934;SDS011;19905;53.370;-6.314;2022-08-18T13:18:24;0.98;;;0.50;;
29934;SDS011;19905;53.370;-6.314;2022-08-18T13:20:56;2.10;;;0.40;;
29934;SDS011;19905;53.370;-6.314;2022-08-18T13:23:26;1.35;;;0.60;;
29934;SDS011;19905;53.370;-6.314;2022-08-18T13:25:56;0.70;;;0.40;;
29934;SDS011;19905;53.370;-6.314;2022-08-18T13:28:30;0.63;;;0.40;;
29934;SDS011;19905;53.370;-6.314;2022-08-18T13:31:20;0.75;;;0.40;;
29934;SDS011;19905;53.370;-6.314;2022-08-18T13:33:49;2.05;;;0.40;;
29934;SDS011;19905;53.370;-6.314;2022-08-18T13:36:22;0.80;;;0.40;;
29934;SDS011;19905;53.370;-6.314;2022-08-18T13:38:54;2.15;;;0.70;;
29934;SDS011;19905;53.370;-6.314;2022-08-18T13:41:23;0.85;;;0.32;;
29934;SDS011;19905;53.370;-6.314;2022-08-18T13:46:36;0.88;;;0.40;;
29934;SDS011;19905;53.370;-6.314;2022-08-18T13:49:12;1.25;;;0.45;;
29934;SDS011;19905;53.370;-6.314;2022-08-18T13:51:51;2.40;;;0.40;;
29934;SDS011;19905;53.370;-6.314;2022-08-18T13:54:27;0.95;;;0.38;;
29934;SDS011;19905;53.370;-6.314;2022-08-18T13:57:01;1.00;;;0.50;;
29934;SDS011;19905;53.370;-6.314;2022-08-18T13:59:33;0.90;;;0.50;;
29934;SDS011;19905;53.370;-6.314;2022-08-18T14:02:12;2.25;;;0.50;;
29934;SDS011;19905;53.370;-6.314;2022-08-18T14:04:40;0.75;;;0.43;;
29934;SDS011;19905;53.370;-6.314;2022-08-18T14:07:12;0.80;;;0.40;;
29934;SDS011;19905;53.370;-6.314;2022-08-18T14:09:53;0.50;;;0.50;;
29934;SDS011;19905;53.370;-6.314;2022-08-18T14:12:22;0.52;;;0.40;;
29934;SDS011;19905;53.370;-6.314;2022-08-18T14:15:00;0.50;;;0.40;;
29934;SDS011;19905;53.370;-6.314;2022-08-18T14:17:28;1.20;;;0.50;;
29934;SDS011;19905;53.370;-6.314;2022-08-18T14:19:57;0.82;;;0.40;;
29934;SDS011;19905;53.370;-6.314;2022-08-18T14:22:54;0.70;;;0.60;;
29934;SDS011;19905;53.370;-6.314;2022-08-18T14:25:51;0.77;;;0.50;;
29934;SDS011;19905;53.370;-6.314;2022-08-18T14:28:38;0.70;;;0.70;;
29934;SDS011;19905;53.370;-6.314;2022-08-18T14:31:08;0.90;;;0.60;;
29934;SDS011;19905;53.370;-6.314;2022-08-18T14:33:43;4.45;;;0.68;;
29934;SDS011;19905;53.370;-6.314;2022-08-18T14:36:17;0.60;;;0.50;;
29934;SDS011;19905;53.370;-6.314;2022-08-18T14:38:56;1.65;;;0.60;;
29934;SDS011;19905;53.370;-6.314;2022-08-18T14:41:26;2.30;;;0.40;;
29934;SDS011;19905;53.370;-6.314;2022-08-18T14:43:56;0.90;;;0.55;;
29934;SDS011;19905;53.370;-6.314;2022-08-18T14:46:41;1.25;;;0.47;;
29934;SDS011;19905;53.370;-6.314;2022-08-18T14:49:20;1.42;;;0.70;;
29934;SDS011;19905;53.370;-6.314;2022-08-18T14:51:55;1.27;;;0.60;;
29934;SDS011;19905;53.370;-6.314;2022-08-18T14:54:24;0.65;;;0.50;;
29934;SDS011;19905;53.370;-6.314;2022-08-18T14:56:55;1.35;;;0.40;;
29934;SDS011;19905;53.370;-6.314;2022-08-18T14:59:25;1.95;;;0.60;;
29934;SDS011;19905;53.370;-6.314;2022-08-18T15:01:56;0.55;;;0.50;;
29934;SDS011;19905;53.370;-6.314;2022-08-18T15:04:27;1.45;;;0.50;;
29934;SDS011;19905;53.370;-6.314;2022-08-18T15:06:56;0.98;;;0.55;;
29934;SDS011;19905;53.370;-6.314;2022-08-18T15:09:25;2.40;;;0.57;;
29934;SDS011;19905;53.370;-6.314;2022-08-18T15:11:55;1.55;;;0.50;;
29934;SDS011;19905;53.370;-6.314;2022-08-18T15:14:25;1.52;;;0.50;;
29934;SDS011;19905;53.370;-6.314;2022-08-18T15:17:01;0.80;;;0.43;;
29934;SDS011;19905;53.370;-6.314;2022-08-18T15:19:41;2.10;;;0.50;;
29934;SDS011;19905;53.370;-6.314;2022-08-18T15:22:26;2.15;;;0.60;;
29934;SDS011;19905;53.370;-6.314;2022-08-18T15:25:13;1.90;;;0.85;;
29934;SDS011;19905;53.370;-6.314;2022-08-18T15:30:42;1.05;;;0.55;;
29934;SDS011;19905;53.370;-6.314;2022-08-18T15:33:17;1.63;;;0.60;;
29934;SDS011;19905;53.370;-6.314;2022-08-18T15:35:53;1.15;;;0.47;;
29934;SDS011;19905;53.370;-6.314;2022-08-18T15:38:22;1.40;;;0.60;;
29934;SDS011;19905;53.370;-6.314;2022-08-18T15:40:52;1.35;;;0.52;;
29934;SDS011;19905;53.370;-6.314;2022-08-18T15:43:24;2.55;;;0.50;;
29934;SDS011;19905;53.370;-6.314;2022-08-18T15:45:57;0.73;;;0.50;;
29934;SDS011;19905;53.370;-6.314;2022-08-18T15:48:30;2.42;;;0.60;;
29934;SDS011;19905;53.370;-6.314;2022-08-18T15:51:00;0.70;;;0.50;;
29934;SDS011;19905;53.370;-6.314;2022-08-18T15:53:38;0.90;;;0.57;;
29934;SDS011;19905;53.370;-6.314;2022-08-18T15:56:12;0.57;;;0.43;;
29934;SDS011;19905;53.370;-6.314;2022-08-18T15:58:46;0.88;;;0.60;;
29934;SDS011;19905;53.370;-6.314;2022-08-18T16:01:16;0.77;;;0.68;;
29934;SDS011;19905;53.370;-6.314;2022-08-18T16:04:00;1.60;;;0.70;;
29934;SDS011;19905;53.370;-6.314;2022-08-18T16:06:31;0.80;;;0.80;;
29934;SDS011;19905;53.370;-6.314;2022-08-18T16:09:01;1.17;;;0.70;;
29934;SDS011;19905;53.370;-6.314;2022-08-18T16:11:30;0.80;;;0.60;;
29934;SDS011;19905;53.370;-6.314;2022-08-18T16:13:59;1.80;;;0.50;;
29934;SDS011;19905;53.370;-6.314;2022-08-18T16:16:28;1.90;;;0.50;;
29934;SDS011;19905;53.370;-6.314;2022-08-18T16:19:04;2.83;;;0.68;;
29934;SDS011;19905;53.370;-6.314;2022-08-18T16:21:33;1.52;;;0.73;;
29934;SDS011;19905;53.370;-6.314;2022-08-18T16:24:06;1.25;;;0.55;;
29934;SDS011;19905;53.370;-6.314;2022-08-18T16:26:35;0.75;;;0.60;;
29934;SDS011;19905;53.370;-6.314;2022-08-18T16:29:04;2.28;;;0.50;;
29934;SDS011;19905;53.370;-6.314;2022-08-18T16:31:33;3.53;;;0.70;;
29934;SDS011;19905;53.370;-6.314;2022-08-18T16:34:01;2.22;;;0.60;;
29934;SDS011;19905;53.370;-6.314;2022-08-18T16:36:32;3.95;;;0.70;;
29934;SDS011;19905;53.370;-6.314;2022-08-18T16:39:01;2.03;;;0.50;;
29934;SDS011;19905;53.370;-6.314;2022-08-18T16:41:32;2.45;;;0.70;;
29934;SDS011;19905;53.370;-6.314;2022-08-18T16:44:01;1.92;;;0.60;;
29934;SDS011;19905;53.370;-6.314;2022-08-18T16:46:30;2.25;;;0.60;;